createdAt,value
2018-05-31T00:01:36.399Z,44.33
2018-05-31T00:04:03.940Z,46.00
2018-05-31T00:06:31.490Z,49.95
2018-05-31T00:08:59.411Z,49.55
2018-05-31T00:11:27.533Z,50.33
2018-05-31T00:13:55.585Z,50.22
2018-05-31T00:16:23.112Z,51.65
2018-05-31T00:18:50.655Z,51.03
2018-05-31T00:21:18.182Z,51.35
2018-05-31T00:23:46.482Z,52.30
2018-05-31T00:26:14.081Z,54.75
2018-05-31T00:28:41.790Z,53.70
2018-05-31T00:31:09.343Z,53.17
2018-05-31T00:33:36.879Z,53.70
2018-05-31T00:36:05.249Z,53.25
2018-05-31T00:38:32.789Z,53.58
2018-05-31T00:41:00.318Z,53.97
2018-05-31T00:43:27.859Z,59.65
2018-05-31T00:45:56.163Z,61.15
2018-05-31T00:48:23.704Z,58.30
2018-05-31T00:50:51.238Z,59.80
2018-05-31T00:53:18.775Z,58.90
2018-05-31T00:55:58.147Z,59.33
2018-05-31T00:58:25.679Z,57.50
2018-05-31T01:00:53.257Z,57.33
2018-05-31T01:03:20.807Z,60.45
2018-05-31T01:05:49.600Z,55.55
2018-05-31T01:08:17.956Z,53.87
2018-05-31T01:10:45.502Z,55.88
2018-05-31T01:13:13.043Z,55.92
2018-05-31T01:15:40.596Z,57.97
2018-05-31T01:18:08.243Z,55.40
2018-05-31T01:20:35.771Z,59.67
2018-05-31T01:23:03.303Z,56.70
2018-05-31T01:25:30.836Z,58.15
2018-05-31T01:27:58.380Z,56.55
2018-05-31T01:30:25.960Z,57.50
2018-05-31T01:32:54.263Z,56.85
2018-05-31T01:35:21.796Z,58.22
2018-05-31T01:37:50.160Z,59.33
2018-05-31T01:40:17.691Z,59.08
2018-05-31T01:42:45.249Z,58.17
2018-05-31T01:45:12.767Z,59.30
2018-05-31T01:47:41.193Z,61.15
2018-05-31T01:50:08.807Z,61.10
2018-05-31T01:52:36.352Z,64.90
2018-05-31T01:55:04.444Z,63.15
2018-05-31T01:57:31.979Z,61.70
2018-05-31T01:59:59.525Z,61.75
2018-05-31T02:02:27.067Z,60.35
2018-05-31T02:04:54.794Z,59.03
2018-05-31T02:07:22.375Z,59.90
2018-05-31T02:09:50.035Z,63.58
2018-05-31T02:12:17.959Z,65.30
2018-05-31T02:14:46.264Z,62.28
2018-05-31T02:17:13.796Z,65.47
2018-05-31T02:19:41.339Z,59.92
2018-05-31T02:22:08.881Z,61.78
2018-05-31T02:24:36.958Z,62.25
2018-05-31T02:27:04.489Z,68.18
2018-05-31T02:29:32.041Z,63.65
2018-05-31T02:31:59.971Z,65.72
2018-05-31T02:34:27.511Z,65.37
2018-05-31T02:36:55.065Z,65.37
2018-05-31T02:39:22.603Z,62.90
2018-05-31T02:41:50.147Z,67.30
2018-05-31T02:44:18.095Z,64.40
2018-05-31T02:46:45.633Z,62.88
2018-05-31T02:49:13.175Z,65.40
2018-05-31T02:51:40.755Z,64.53
2018-05-31T02:54:08.334Z,67.15
2018-05-31T02:56:36.628Z,62.58
2018-05-31T02:59:04.163Z,64.95
2018-05-31T03:01:31.697Z,66.12
2018-05-31T03:03:59.408Z,66.70
2018-05-31T03:06:26.935Z,65.72
2018-05-31T03:08:54.464Z,65.50
2018-05-31T03:11:22.080Z,68.00
2018-05-31T03:13:50.379Z,68.10
2018-05-31T03:16:17.923Z,63.38
2018-05-31T03:18:47.172Z,63.10
2018-05-31T03:21:14.715Z,69.32
2018-05-31T03:23:42.247Z,70.10
2018-05-31T03:26:09.777Z,65.18
2018-05-31T03:28:37.328Z,63.28
2018-05-31T03:31:04.872Z,63.45
2018-05-31T03:33:32.420Z,60.70
2018-05-31T03:35:59.954Z,59.90
2018-05-31T03:38:27.486Z,63.63
2018-05-31T03:40:55.011Z,63.10
2018-05-31T03:43:22.567Z,57.85
2018-05-31T03:45:50.094Z,58.60
2018-05-31T03:48:17.619Z,61.25
2018-05-31T03:50:45.144Z,66.72
2018-05-31T03:53:12.683Z,62.42
2018-05-31T03:55:40.226Z,61.88
2018-05-31T03:58:07.759Z,60.35
2018-05-31T04:00:35.317Z,60.25
2018-05-31T04:03:02.863Z,61.45
2018-05-31T04:05:30.416Z,58.70
2018-05-31T04:07:57.960Z,61.97
2018-05-31T04:10:25.491Z,57.60
2018-05-31T04:12:53.046Z,56.75
2018-05-31T04:15:20.591Z,57.85
2018-05-31T04:17:48.131Z,60.33
2018-05-31T04:20:15.660Z,55.03
2018-05-31T04:22:43.205Z,55.35
2018-05-31T04:25:10.739Z,52.35
2018-05-31T04:27:38.269Z,53.42
2018-05-31T04:30:05.820Z,55.58
2018-05-31T04:32:33.351Z,53.45
2018-05-31T04:35:00.883Z,53.80
2018-05-31T04:37:28.433Z,52.35
2018-05-31T04:39:56.045Z,54.45
2018-05-31T04:42:23.628Z,52.50
2018-05-31T04:44:51.866Z,53.75
2018-05-31T04:47:19.394Z,52.97
2018-05-31T04:49:46.926Z,49.40
2018-05-31T04:52:14.474Z,49.65
2018-05-31T04:54:42.026Z,48.65
2018-05-31T04:57:09.563Z,51.30
2018-05-31T04:59:37.107Z,52.28
2018-05-31T05:02:04.643Z,49.28
2018-05-31T05:04:32.177Z,48.78
2018-05-31T05:06:59.761Z,48.47
2018-05-31T05:09:27.295Z,49.22
2018-05-31T05:11:54.830Z,49.33
2018-05-31T05:14:22.374Z,47.95
2018-05-31T05:16:49.902Z,45.28
2018-05-31T05:19:17.475Z,46.55
2018-05-31T05:21:45.012Z,45.50
2018-05-31T05:24:12.560Z,45.20
2018-05-31T05:26:40.504Z,45.35
2018-05-31T05:29:08.056Z,45.10
2018-05-31T05:31:35.588Z,43.97
2018-05-31T05:34:03.131Z,42.88
2018-05-31T05:36:30.804Z,41.25
2018-05-31T05:38:58.338Z,43.67
2018-05-31T05:41:25.871Z,43.67
2018-05-31T05:43:53.399Z,41.90
2018-05-31T05:46:20.941Z,40.95
2018-05-31T05:48:48.466Z,40.20
2018-05-31T05:51:16.002Z,39.45
2018-05-31T05:53:44.300Z,40.22
2018-05-31T05:56:11.835Z,39.25
2018-05-31T05:58:39.378Z,38.47
2018-05-31T06:01:06.912Z,34.85
2018-05-31T06:03:34.447Z,33.65
2018-05-31T06:06:01.980Z,34.35
2018-05-31T06:08:29.519Z,33.13
2018-05-31T06:10:57.064Z,33.47
2018-05-31T06:13:24.622Z,31.42
2018-05-31T06:15:52.159Z,29.08
2018-05-31T06:18:19.704Z,29.08
2018-05-31T06:20:47.248Z,26.45
2018-05-31T06:23:14.796Z,25.65
2018-05-31T06:25:43.098Z,25.33
2018-05-31T06:28:11.531Z,24.58
2018-05-31T06:30:39.061Z,25.52
2018-05-31T06:33:06.603Z,23.95
2018-05-31T06:35:34.127Z,23.95
2018-05-31T06:38:01.647Z,24.77
2018-05-31T06:40:29.191Z,24.12
2018-05-31T06:42:56.755Z,22.62
2018-05-31T06:45:25.020Z,24.63
2018-05-31T06:47:52.558Z,23.05
2018-05-31T06:50:20.079Z,21.73
2018-05-31T06:52:47.595Z,23.20
2018-05-31T06:55:15.915Z,21.45
2018-05-31T06:57:43.431Z,20.67
2018-05-31T07:00:10.962Z,20.45
2018-05-31T07:02:38.496Z,19.80
2018-05-31T07:05:06.037Z,18.48
2018-05-31T07:07:33.567Z,17.23
2018-05-31T07:10:01.115Z,17.40
2018-05-31T07:12:28.627Z,17.60
2018-05-31T07:14:56.158Z,17.37
2018-05-31T07:17:23.681Z,18.55
2018-05-31T07:19:51.200Z,19.58
2018-05-31T07:22:18.729Z,19.62
2018-05-31T07:24:46.247Z,20.60
2018-05-31T07:27:13.772Z,19.37
2018-05-31T07:29:41.307Z,20.50
2018-05-31T07:32:08.844Z,19.95
2018-05-31T07:34:36.368Z,19.12
2018-05-31T07:37:03.896Z,20.70
2018-05-31T07:39:32.184Z,20.85
2018-05-31T07:41:59.702Z,18.95
2018-05-31T07:44:27.266Z,21.05
2018-05-31T07:46:54.788Z,19.58
2018-05-31T07:49:22.311Z,20.45
2018-05-31T07:51:49.839Z,20.15
2018-05-31T07:54:17.372Z,20.33
2018-05-31T07:56:44.896Z,19.02
2018-05-31T07:59:12.467Z,17.02
2018-05-31T08:01:39.994Z,19.02
2018-05-31T08:04:07.511Z,18.65
2018-05-31T08:06:35.036Z,20.25
2018-05-31T08:09:02.555Z,25.55
2018-05-31T08:11:30.079Z,21.00
2018-05-31T08:13:57.684Z,39.95
2018-05-31T08:16:25.416Z,19.70
2018-05-31T08:18:52.930Z,25.55
2018-05-31T08:21:20.478Z,27.20
2018-05-31T08:23:48.012Z,19.62
2018-05-31T08:26:15.530Z,19.85
2018-05-31T08:28:43.048Z,20.75
2018-05-31T08:31:11.257Z,17.35
2018-05-31T08:33:39.019Z,18.35
2018-05-31T08:36:07.771Z,17.65
2018-05-31T08:38:35.295Z,21.52
2018-05-31T08:41:02.819Z,17.52
2018-05-31T08:43:30.340Z,17.15
2018-05-31T08:45:57.888Z,16.37
2018-05-31T08:48:25.615Z,17.20
2018-05-31T08:50:53.136Z,16.17
2018-05-31T08:53:20.667Z,16.92
2018-05-31T08:55:48.952Z,17.80
2018-05-31T08:58:16.687Z,18.75
2018-05-31T09:00:44.211Z,21.37
2018-05-31T09:03:11.740Z,18.60
2018-05-31T09:05:39.984Z,20.05
2018-05-31T09:08:07.516Z,18.87
2018-05-31T09:10:35.812Z,17.83
2018-05-31T09:13:03.339Z,17.98
2018-05-31T09:15:30.855Z,15.30
2018-05-31T09:17:58.384Z,28.23
2018-05-31T09:20:26.883Z,19.92
2018-05-31T09:22:54.402Z,16.10
2018-05-31T09:25:22.742Z,14.70
2018-05-31T09:27:50.290Z,14.98
2018-05-31T09:30:17.823Z,14.55
2018-05-31T09:32:45.354Z,16.37
2018-05-31T09:35:12.887Z,39.08
2018-05-31T09:37:40.967Z,12.82
2018-05-31T09:40:08.487Z,12.90
2018-05-31T09:42:36.069Z,12.63
2018-05-31T09:45:03.587Z,23.55
2018-05-31T09:47:31.108Z,23.48
2018-05-31T09:49:58.633Z,10.82
2018-05-31T09:52:26.167Z,10.77
2018-05-31T09:54:53.684Z,9.43
2018-05-31T09:57:21.262Z,11.48
2018-05-31T09:59:48.805Z,11.35
2018-05-31T10:02:16.331Z,10.40
2018-05-31T10:04:43.859Z,12.07
2018-05-31T10:07:11.387Z,11.65
2018-05-31T10:09:38.920Z,11.27
2018-05-31T10:12:06.468Z,11.27
2018-05-31T10:14:33.983Z,10.68
2018-05-31T10:17:01.529Z,10.00
2018-05-31T10:19:29.055Z,9.50
2018-05-31T10:21:56.580Z,10.45
2018-05-31T10:24:24.190Z,10.75
2018-05-31T10:26:51.721Z,9.85
2018-05-31T10:29:19.370Z,11.15
2018-05-31T10:31:47.194Z,10.73
2018-05-31T10:34:14.722Z,10.43
2018-05-31T10:36:42.249Z,10.45
2018-05-31T10:39:09.762Z,10.98
2018-05-31T10:41:37.294Z,10.90
2018-05-31T10:44:04.812Z,11.63
2018-05-31T10:46:32.347Z,12.32
2018-05-31T10:48:59.862Z,10.70
2018-05-31T10:51:27.400Z,11.55
2018-05-31T10:53:54.947Z,11.50
2018-05-31T10:56:22.462Z,10.60
2018-05-31T10:58:49.986Z,11.12
2018-05-31T11:01:17.524Z,11.80
2018-05-31T11:03:45.051Z,10.45
2018-05-31T11:06:12.573Z,11.27
2018-05-31T11:08:40.152Z,13.13
2018-05-31T11:11:07.667Z,12.35
2018-05-31T11:13:35.201Z,12.52
2018-05-31T11:16:02.724Z,12.00
2018-05-31T11:18:30.356Z,12.60
2018-05-31T11:20:57.875Z,12.07
2018-05-31T11:23:25.396Z,12.68
2018-05-31T11:25:53.530Z,34.53
2018-05-31T11:28:21.052Z,12.30
2018-05-31T11:30:48.575Z,23.55
2018-05-31T11:33:16.102Z,20.52
2018-05-31T11:35:43.680Z,15.93
2018-05-31T11:38:11.218Z,16.62
2018-05-31T11:40:38.730Z,11.30
2018-05-31T11:43:06.262Z,18.00
2018-05-31T11:45:33.843Z,16.95
2018-05-31T11:48:02.101Z,13.40
2018-05-31T11:50:30.334Z,12.05
2018-05-31T11:52:57.866Z,49.45
2018-05-31T11:55:25.392Z,14.82
2018-05-31T11:57:52.946Z,21.45
2018-05-31T12:00:20.475Z,126.72
2018-05-31T12:02:48.027Z,23.80
2018-05-31T12:05:15.807Z,11.30
2018-05-31T12:07:43.334Z,11.75
2018-05-31T12:10:10.859Z,11.85
2018-05-31T12:12:38.372Z,10.75
2018-05-31T12:15:05.900Z,11.27
2018-05-31T12:17:33.463Z,12.75
2018-05-31T12:20:00.993Z,12.05
2018-05-31T12:22:28.508Z,11.18
2018-05-31T12:24:56.795Z,11.23
2018-05-31T12:27:24.308Z,9.90
2018-05-31T12:29:51.833Z,10.18
2018-05-31T12:32:19.398Z,12.85
2018-05-31T12:34:46.922Z,9.90
2018-05-31T12:37:15.351Z,8.82
2018-05-31T12:39:42.867Z,15.32
2018-05-31T12:42:10.399Z,9.30
2018-05-31T12:44:37.935Z,10.43
2018-05-31T12:47:05.451Z,11.23
2018-05-31T12:49:32.968Z,12.23
2018-05-31T12:52:00.550Z,34.40
2018-05-31T12:54:28.079Z,18.45
2018-05-31T12:56:55.643Z,10.50
2018-05-31T12:59:23.160Z,11.20
2018-05-31T13:01:50.691Z,12.82
2018-05-31T13:04:18.215Z,16.27
2018-05-31T13:06:45.730Z,10.82
2018-05-31T13:09:13.259Z,14.55
2018-05-31T13:11:40.775Z,11.52
2018-05-31T13:14:08.285Z,10.25
2018-05-31T13:16:35.816Z,11.50
2018-05-31T13:19:04.103Z,32.72
2018-05-31T13:21:31.623Z,14.98
2018-05-31T13:23:59.151Z,12.30
2018-05-31T13:26:27.435Z,12.20
2018-05-31T13:28:54.975Z,13.52
2018-05-31T13:31:22.503Z,12.13
2018-05-31T13:33:50.032Z,11.18
2018-05-31T13:36:17.554Z,11.45
2018-05-31T13:38:45.075Z,11.52
2018-05-31T13:41:12.608Z,11.55
2018-05-31T13:43:40.134Z,10.88
2018-05-31T13:46:07.667Z,10.70
2018-05-31T13:48:35.315Z,10.95
2018-05-31T13:51:02.796Z,10.32
2018-05-31T13:53:30.324Z,11.05
2018-05-31T13:55:57.844Z,10.30
2018-05-31T13:58:25.363Z,10.55
2018-05-31T14:00:52.901Z,10.20
2018-05-31T14:03:20.420Z,10.38
2018-05-31T14:05:47.938Z,10.23
2018-05-31T14:08:15.456Z,8.95
2018-05-31T14:10:42.975Z,9.82
2018-05-31T14:13:10.530Z,11.07
2018-05-31T14:15:38.052Z,10.30
2018-05-31T14:18:05.597Z,9.73
2018-05-31T14:20:33.114Z,9.10
2018-05-31T14:23:00.639Z,10.93
2018-05-31T14:25:28.264Z,10.48
2018-05-31T14:27:55.803Z,11.45
2018-05-31T14:30:24.157Z,11.90
2018-05-31T14:32:51.680Z,11.07
2018-05-31T14:35:19.966Z,11.35
2018-05-31T14:37:48.258Z,11.82
2018-05-31T14:40:15.800Z,12.73
2018-05-31T14:42:43.321Z,20.75
2018-05-31T14:45:10.854Z,15.30
2018-05-31T14:47:39.219Z,15.82
2018-05-31T14:50:06.784Z,13.60
2018-05-31T14:52:34.680Z,12.18
2018-05-31T14:55:03.007Z,12.07
2018-05-31T14:57:30.530Z,13.95
2018-05-31T14:59:58.056Z,11.30
2018-05-31T15:02:25.590Z,11.93
2018-05-31T15:04:53.884Z,12.23
2018-05-31T15:07:21.422Z,12.52
2018-05-31T15:09:49.234Z,11.02
2018-05-31T15:12:16.772Z,40.92
2018-05-31T15:14:44.290Z,52.50
2018-05-31T15:17:11.812Z,24.95
2018-05-31T15:19:39.328Z,27.92
2018-05-31T15:22:07.618Z,29.60
2018-05-31T15:24:35.140Z,23.33
2018-05-31T15:27:02.661Z,22.20
2018-05-31T15:29:30.184Z,23.92
2018-05-31T15:31:57.716Z,26.30
2018-05-31T15:34:25.243Z,25.85
2018-05-31T15:36:52.779Z,23.77
2018-05-31T15:39:20.303Z,27.10
2018-05-31T15:41:47.943Z,23.80
2018-05-31T15:44:15.460Z,23.12
2018-05-31T15:46:42.987Z,22.83
2018-05-31T15:49:11.595Z,20.40
2018-05-31T15:51:39.112Z,23.58
2018-05-31T15:56:39.639Z,21.77
2018-05-31T15:59:07.195Z,20.50
2018-05-31T16:01:34.723Z,20.42
2018-05-31T16:04:02.248Z,21.17
2018-05-31T16:06:30.617Z,20.35
2018-05-31T16:08:58.146Z,23.02
2018-05-31T16:11:25.660Z,20.92
2018-05-31T16:13:53.971Z,20.65
2018-05-31T16:16:21.543Z,18.65
2018-05-31T16:18:49.063Z,17.42
2018-05-31T16:21:16.609Z,17.30
2018-05-31T16:23:44.132Z,18.20
2018-05-31T16:26:11.650Z,15.80
2018-05-31T16:28:39.239Z,17.73
2018-05-31T16:31:07.842Z,16.15
2018-05-31T16:33:35.363Z,14.80
2018-05-31T16:36:03.667Z,15.32
2018-05-31T16:38:31.528Z,15.20
2018-05-31T16:40:59.059Z,16.12
2018-05-31T16:43:26.585Z,15.55
2018-05-31T16:45:54.114Z,13.73
2018-05-31T16:48:21.667Z,14.18
2018-05-31T16:50:49.966Z,13.90
2018-05-31T16:53:18.317Z,16.02
2018-05-31T16:55:45.842Z,12.77
2018-05-31T16:58:13.370Z,12.65
2018-05-31T17:00:40.895Z,13.80
2018-05-31T17:03:08.428Z,12.90
2018-05-31T17:05:35.951Z,12.48
2018-05-31T17:08:03.471Z,13.02
2018-05-31T17:10:31.000Z,14.70
2018-05-31T17:12:58.534Z,14.25
2018-05-31T17:15:26.058Z,13.27
2018-05-31T17:17:53.590Z,13.57
2018-05-31T17:20:21.113Z,13.60
2018-05-31T17:22:48.638Z,14.75
2018-05-31T17:25:16.926Z,14.05
2018-05-31T17:27:44.456Z,15.73
2018-05-31T17:30:12.003Z,15.90
2018-05-31T17:32:39.535Z,16.35
2018-05-31T17:35:07.079Z,16.40
2018-05-31T17:37:34.606Z,16.92
2018-05-31T17:40:02.155Z,17.08
2018-05-31T17:42:29.694Z,16.50
2018-05-31T17:44:57.205Z,17.67
2018-05-31T17:47:24.727Z,18.52
2018-05-31T17:49:52.251Z,17.80
2018-05-31T17:52:19.768Z,18.52
2018-05-31T17:54:47.300Z,18.70
2018-05-31T17:57:14.825Z,19.10
2018-05-31T17:59:42.345Z,22.20
2018-05-31T18:02:09.866Z,19.73
2018-05-31T18:04:37.404Z,19.67
2018-05-31T18:07:04.956Z,19.33
2018-05-31T18:09:32.484Z,19.95
2018-05-31T18:12:00.012Z,19.52
2018-05-31T18:14:27.611Z,21.83
2018-05-31T18:16:55.084Z,21.70
2018-05-31T18:19:22.616Z,22.23
2018-05-31T18:21:50.144Z,22.25
2018-05-31T18:24:17.667Z,23.35
2018-05-31T18:26:45.187Z,22.45
2018-05-31T18:29:13.479Z,23.48
2018-05-31T18:31:41.007Z,22.95
2018-05-31T18:34:09.272Z,24.55
2018-05-31T18:36:36.794Z,24.08
2018-05-31T18:39:05.150Z,24.45
2018-05-31T18:41:32.679Z,24.10
2018-05-31T18:44:00.207Z,24.65
2018-05-31T18:46:27.740Z,26.12
2018-05-31T18:48:55.271Z,26.65
2018-05-31T18:51:23.707Z,26.23
2018-05-31T18:53:51.238Z,25.50
2018-05-31T18:56:19.523Z,26.30
2018-05-31T18:58:47.059Z,26.48
2018-05-31T19:01:14.594Z,26.45
2018-05-31T19:03:42.116Z,28.92
2018-05-31T19:06:09.635Z,27.95
2018-05-31T19:08:38.295Z,26.73
2018-05-31T19:11:06.674Z,27.95
2018-05-31T19:13:39.896Z,28.00
2018-05-31T19:16:07.437Z,28.30
2018-05-31T19:18:40.675Z,29.33
2018-05-31T19:21:08.983Z,28.75
2018-05-31T19:23:37.143Z,30.95
2018-05-31T19:26:04.692Z,28.85
2018-05-31T19:28:32.218Z,30.65
2018-05-31T19:31:06.314Z,30.55
2018-05-31T19:33:33.845Z,28.48
2018-05-31T19:36:06.999Z,30.67
2018-05-31T19:38:34.576Z,31.23
2018-05-31T19:41:02.079Z,30.15
2018-05-31T19:43:35.313Z,32.15
2018-05-31T19:46:03.620Z,31.92
2018-05-31T19:48:31.152Z,32.45
2018-05-31T19:50:58.668Z,35.10
2018-05-31T19:53:31.783Z,30.15
2018-05-31T19:55:59.320Z,31.52
2018-05-31T19:58:32.532Z,32.60
2018-05-31T20:01:05.650Z,32.90
2018-05-31T20:03:34.980Z,33.45
2018-05-31T20:06:02.533Z,34.65
2018-05-31T20:08:30.062Z,34.97
2018-05-31T20:10:57.588Z,33.47
2018-05-31T20:13:25.121Z,34.30
2018-05-31T20:15:52.651Z,34.83
2018-05-31T20:18:20.176Z,33.55
2018-05-31T20:20:47.754Z,33.08
2018-05-31T20:23:16.201Z,32.75
2018-05-31T20:25:43.729Z,33.22
2018-05-31T20:28:11.251Z,34.70
2018-05-31T20:30:38.826Z,35.22
2018-05-31T20:33:06.323Z,33.53
2018-05-31T20:35:33.851Z,34.63
2018-05-31T20:38:01.654Z,34.20
2018-05-31T20:40:29.175Z,32.78
2018-05-31T20:42:56.696Z,33.25
2018-05-31T20:45:24.219Z,35.92
2018-05-31T20:47:52.513Z,35.70
2018-05-31T20:50:20.038Z,34.88
2018-05-31T20:52:47.563Z,35.90
2018-05-31T20:55:15.079Z,34.42
2018-05-31T20:57:43.358Z,33.88
2018-05-31T21:00:10.921Z,34.47
2018-05-31T21:02:38.458Z,35.70
2018-05-31T21:05:05.979Z,35.33
2018-05-31T21:07:33.505Z,35.90
2018-05-31T21:10:01.546Z,37.13
2018-05-31T21:12:29.083Z,36.58
2018-05-31T21:14:56.607Z,37.85
2018-05-31T21:17:24.142Z,41.20
2018-05-31T21:19:51.663Z,39.53
2018-05-31T21:22:19.467Z,39.20
2018-05-31T21:24:47.000Z,38.42
2018-05-31T21:27:14.548Z,41.00
2018-05-31T21:29:42.072Z,39.55
2018-05-31T21:32:09.592Z,41.97
2018-05-31T21:34:37.879Z,41.95
2018-05-31T21:37:05.412Z,46.70
2018-05-31T21:39:32.956Z,42.13
2018-05-31T21:42:00.472Z,49.13
2018-05-31T21:44:28.006Z,43.95
2018-05-31T21:46:55.526Z,46.63
2018-05-31T21:49:23.051Z,47.97
2018-05-31T21:51:50.570Z,48.38
2018-05-31T21:54:18.095Z,50.75
2018-05-31T21:56:45.615Z,44.55
2018-05-31T21:59:13.899Z,49.97
2018-05-31T22:01:41.419Z,47.90
2018-05-31T22:04:08.983Z,45.90
2018-05-31T22:06:36.517Z,48.22
2018-05-31T22:09:04.798Z,51.08
2018-05-31T22:11:32.371Z,45.47
2018-05-31T22:13:59.867Z,43.00
2018-05-31T22:16:27.396Z,42.25
2018-05-31T22:18:54.924Z,44.03
2018-05-31T22:21:22.441Z,48.60
2018-05-31T22:23:49.971Z,52.15
2018-05-31T22:26:17.496Z,56.78
2018-05-31T22:28:45.027Z,52.55
2018-05-31T22:31:12.551Z,51.05
2018-05-31T22:33:40.063Z,52.28
2018-05-31T22:36:08.343Z,50.90
2018-05-31T22:38:35.868Z,51.95
2018-05-31T22:41:03.389Z,53.87
2018-05-31T22:43:31.743Z,54.58
2018-05-31T22:45:59.277Z,58.08
2018-05-31T22:48:26.816Z,54.13
2018-05-31T22:50:54.339Z,53.20
2018-05-31T22:53:21.892Z,56.88
2018-05-31T22:55:49.414Z,48.80
2018-05-31T22:58:16.956Z,49.15
2018-05-31T23:00:44.488Z,46.28
2018-05-31T23:03:12.030Z,46.67
2018-05-31T23:05:39.603Z,54.72
2018-05-31T23:08:07.125Z,50.55
2018-05-31T23:10:34.647Z,56.17
2018-05-31T23:13:02.168Z,56.13
2018-05-31T23:15:29.704Z,54.70
2018-05-31T23:17:57.237Z,56.17
2018-05-31T23:20:24.759Z,54.10
2018-05-31T23:22:52.279Z,53.45
2018-05-31T23:25:19.803Z,57.10
2018-05-31T23:27:47.330Z,53.00
2018-05-31T23:30:14.915Z,55.80
2018-05-31T23:32:42.435Z,54.55
2018-05-31T23:35:09.960Z,54.97
2018-05-31T23:37:37.521Z,54.80
2018-05-31T23:40:05.051Z,52.80
2018-05-31T23:42:32.568Z,51.63
2018-05-31T23:45:00.089Z,52.67
2018-05-31T23:47:27.611Z,57.67
2018-05-31T23:49:55.137Z,62.08
2018-05-31T23:52:22.668Z,56.42
2018-05-31T23:54:50.182Z,51.03
2018-05-31T23:57:17.698Z,53.80
2018-05-31T23:59:45.218Z,56.72
